createdAt,value
2019-03-24T00:04:37.364Z,6.40
2019-03-24T00:09:41.134Z,6.48
2019-03-24T00:14:45.262Z,5.87
2019-03-24T00:19:48.629Z,6.28
2019-03-24T00:24:52.429Z,6.40
2019-03-24T00:29:56.812Z,6.45
2019-03-24T00:35:01.017Z,6.50
2019-03-24T00:40:05.353Z,6.53
2019-03-24T00:45:09.893Z,6.50
2019-03-24T00:50:14.718Z,6.41
2019-03-24T00:55:18.672Z,6.38
2019-03-24T01:00:40.773Z,6.40
2019-03-24T01:05:44.547Z,6.15
2019-03-24T01:10:48.633Z,6.25
2019-03-24T01:15:52.508Z,6.28
2019-03-24T01:20:56.529Z,6.23
2019-03-24T01:26:00.768Z,6.25
2019-03-24T01:31:04.954Z,5.79
2019-03-24T01:36:09.156Z,5.99
2019-03-24T01:41:12.631Z,6.08
2019-03-24T01:46:16.059Z,6.04
2019-03-24T01:51:19.482Z,6.02
2019-03-24T01:56:22.893Z,6.07
2019-03-24T02:01:26.985Z,6.11
2019-03-24T02:06:32.591Z,6.15
2019-03-24T02:11:36.411Z,6.08
2019-03-24T02:16:40.759Z,5.86
2019-03-24T02:21:44.213Z,5.88
2019-03-24T02:26:47.682Z,6.06
2019-03-24T02:31:51.145Z,6.06
2019-03-24T02:36:54.311Z,5.26
2019-03-24T02:41:58.541Z,5.59
2019-03-24T02:47:01.456Z,5.91
2019-03-24T02:52:05.370Z,5.87
2019-03-24T02:57:08.383Z,5.93
2019-03-24T03:02:12.184Z,6.00
2019-03-24T03:07:16.303Z,5.84
2019-03-24T03:12:20.156Z,5.76
2019-03-24T03:17:23.986Z,5.71
2019-03-24T03:22:27.484Z,5.63
2019-03-24T03:27:31.674Z,5.54
2019-03-24T03:32:34.777Z,4.93
2019-03-24T03:37:38.083Z,5.18
2019-03-24T03:42:41.978Z,5.45
2019-03-24T03:47:45.903Z,5.60
2019-03-24T03:52:50.096Z,5.47
2019-03-24T03:57:53.873Z,5.64
2019-03-24T04:02:57.686Z,5.61
2019-03-24T04:08:00.819Z,5.63
2019-03-24T04:13:04.216Z,5.59
2019-03-24T04:18:07.321Z,5.65
2019-03-24T04:23:11.173Z,5.80
2019-03-24T04:28:15.226Z,5.82
2019-03-24T04:33:18.687Z,5.85
2019-03-24T04:38:22.116Z,5.72
2019-03-24T04:43:25.872Z,5.10
2019-03-24T04:48:29.426Z,5.32
2019-03-24T04:53:33.619Z,5.61
2019-03-24T04:58:37.399Z,5.58
2019-03-24T05:03:40.866Z,5.56
2019-03-24T05:08:45.915Z,5.58
2019-03-24T05:13:49.648Z,5.55
2019-03-24T05:18:53.648Z,5.27
2019-03-24T05:23:57.496Z,5.50
2019-03-24T05:29:01.320Z,5.74
2019-03-24T05:34:05.190Z,5.31
2019-03-24T05:39:09.034Z,5.56
2019-03-24T05:44:13.256Z,5.46
2019-03-24T05:49:17.349Z,5.80
2019-03-24T05:54:21.206Z,5.87
2019-03-24T05:59:25.468Z,5.92
2019-03-24T06:04:29.728Z,6.04
2019-03-24T06:09:33.456Z,5.84
2019-03-24T06:14:37.603Z,6.08
2019-03-24T06:19:40.706Z,6.22
2019-03-24T06:24:44.665Z,6.38
2019-03-24T06:29:48.491Z,5.81
2019-03-24T06:34:52.320Z,6.22
2019-03-24T06:39:57.171Z,6.47
2019-03-24T06:45:00.941Z,5.95
2019-03-24T06:50:04.773Z,6.21
2019-03-24T06:55:08.483Z,6.01
2019-03-24T07:00:12.502Z,6.15
2019-03-24T07:05:16.566Z,6.28
2019-03-24T07:10:20.192Z,6.71
2019-03-24T07:15:23.627Z,6.52
2019-03-24T07:20:27.428Z,6.61
2019-03-24T07:25:31.379Z,6.73
2019-03-24T07:30:34.858Z,6.20
2019-03-24T07:35:38.719Z,6.82
2019-03-24T07:40:42.139Z,6.99
2019-03-24T07:45:45.997Z,6.96
2019-03-24T07:50:49.865Z,7.04
2019-03-24T07:55:53.299Z,6.63
2019-03-24T08:00:57.567Z,7.05
2019-03-24T08:06:01.514Z,6.66
2019-03-24T08:11:05.453Z,6.86
2019-03-24T08:16:09.322Z,6.80
2019-03-24T08:21:13.122Z,6.75
2019-03-24T08:26:16.613Z,6.90
2019-03-24T08:31:20.477Z,7.16
2019-03-24T08:36:24.787Z,7.18
2019-03-24T08:41:28.651Z,7.42
2019-03-24T08:46:33.496Z,7.12
2019-03-24T08:51:37.496Z,7.06
2019-03-24T08:56:41.342Z,7.53
2019-03-24T09:01:45.671Z,7.57
2019-03-24T09:06:49.512Z,6.80
2019-03-24T09:11:53.434Z,6.93
2019-03-24T09:16:56.165Z,6.98
2019-03-24T09:21:59.977Z,7.55
2019-03-24T09:27:03.551Z,7.54
2019-03-24T09:32:06.781Z,7.57
2019-03-24T09:37:10.625Z,7.74
2019-03-24T09:42:14.795Z,7.66
2019-03-24T09:47:18.724Z,7.75
2019-03-24T09:52:22.594Z,7.86
2019-03-24T09:57:25.770Z,7.04
2019-03-24T10:02:29.829Z,7.62
2019-03-24T10:07:34.076Z,7.34
2019-03-24T10:12:37.800Z,7.68
2019-03-24T10:17:41.615Z,7.72
2019-03-24T10:22:45.125Z,8.23
2019-03-24T10:27:48.554Z,8.61
2019-03-24T10:32:52.439Z,8.40
2019-03-24T10:37:56.569Z,8.42
2019-03-24T10:43:00.081Z,8.90
2019-03-24T10:48:03.616Z,9.07
2019-03-24T10:53:07.272Z,9.16
2019-03-24T10:58:11.666Z,9.37
2019-03-24T11:03:16.152Z,9.68
2019-03-24T11:08:19.974Z,9.08
2019-03-24T11:13:23.440Z,9.69
2019-03-24T11:18:27.320Z,9.82
2019-03-24T11:23:31.517Z,10.92
2019-03-24T11:28:35.820Z,10.98
2019-03-24T11:33:39.759Z,10.60
2019-03-24T11:38:42.901Z,10.02
2019-03-24T11:43:46.014Z,9.79
2019-03-24T11:48:49.498Z,10.37
2019-03-24T11:53:53.358Z,11.37
2019-03-24T11:58:57.643Z,12.04
2019-03-24T12:04:01.122Z,11.41
2019-03-24T12:09:06.313Z,11.82
2019-03-24T12:14:10.275Z,13.21
2019-03-24T12:19:13.826Z,12.84
2019-03-24T12:24:17.927Z,13.93
2019-03-24T12:29:22.806Z,14.62
2019-03-24T12:34:27.524Z,15.18
2019-03-24T12:39:31.044Z,14.41
2019-03-24T12:44:34.571Z,14.06
2019-03-24T12:49:38.817Z,14.41
2019-03-24T12:54:42.636Z,13.50
2019-03-24T12:59:46.072Z,13.70
2019-03-24T13:04:49.565Z,13.83
2019-03-24T13:09:53.910Z,14.64
2019-03-24T13:14:58.105Z,14.47
2019-03-24T13:20:02.061Z,13.51
2019-03-24T13:25:05.891Z,12.24
2019-03-24T13:30:10.412Z,14.12
2019-03-24T13:35:14.679Z,14.49
2019-03-24T13:40:19.022Z,12.64
2019-03-24T13:45:24.873Z,12.53
2019-03-24T13:50:39.254Z,14.06
2019-03-24T13:55:43.246Z,13.84
2019-03-24T14:00:47.928Z,13.09
2019-03-24T14:05:52.148Z,13.07
2019-03-24T14:10:56.315Z,13.67
2019-03-24T14:16:00.605Z,14.38
2019-03-24T14:21:04.974Z,14.81
2019-03-24T14:26:09.205Z,13.94
2019-03-24T14:31:12.694Z,14.43
2019-03-24T14:36:17.370Z,16.07
2019-03-24T14:41:21.599Z,14.62
2019-03-24T14:46:25.351Z,15.19
2019-03-24T14:51:29.544Z,13.85
2019-03-24T14:56:34.126Z,12.43
2019-03-24T15:01:38.326Z,13.50
2019-03-24T15:06:41.854Z,13.22
2019-03-24T15:11:45.415Z,13.41
2019-03-24T15:16:49.283Z,14.06
2019-03-24T15:21:53.551Z,12.23
2019-03-24T15:26:56.949Z,11.16
2019-03-24T15:32:01.239Z,11.51
2019-03-24T15:37:05.112Z,12.51
2019-03-24T15:42:09.331Z,12.29
2019-03-24T15:47:13.117Z,11.84
2019-03-24T15:52:16.616Z,11.68
2019-03-24T15:57:20.460Z,12.03
2019-03-24T16:02:24.780Z,12.29
2019-03-24T16:07:29.089Z,12.35
2019-03-24T16:12:35.287Z,12.10
2019-03-24T16:17:41.311Z,11.28
2019-03-24T16:22:45.585Z,11.72
2019-03-24T16:27:49.173Z,10.96
2019-03-24T16:32:53.134Z,11.09
2019-03-24T16:37:56.936Z,10.75
2019-03-24T16:43:00.970Z,10.25
2019-03-24T16:48:05.264Z,10.02
2019-03-24T16:53:09.214Z,9.79
2019-03-24T16:58:13.051Z,9.50
2019-03-24T17:03:16.981Z,9.38
2019-03-24T17:08:20.497Z,8.86
2019-03-24T17:13:24.759Z,8.92
2019-03-24T17:18:28.966Z,8.90
2019-03-24T17:23:34.321Z,8.66
2019-03-24T17:28:46.970Z,8.82
2019-03-24T17:33:51.186Z,8.77
2019-03-24T17:39:00.543Z,8.74
2019-03-24T17:44:05.609Z,8.33
2019-03-24T17:49:12.248Z,8.33
2019-03-24T17:54:20.665Z,8.31
2019-03-24T17:59:26.085Z,7.97
2019-03-24T18:04:30.027Z,8.04
2019-03-24T18:09:39.320Z,8.16
2019-03-24T18:14:51.846Z,8.81
2019-03-24T18:19:57.580Z,8.12
2019-03-24T18:25:04.025Z,7.84
2019-03-24T18:30:09.756Z,7.40
2019-03-24T18:35:12.896Z,7.57
2019-03-24T18:40:17.712Z,7.37
2019-03-24T18:45:22.063Z,7.26
2019-03-24T18:50:30.134Z,7.25
2019-03-24T18:55:37.264Z,7.20
2019-03-24T19:00:43.975Z,7.37
2019-03-24T19:05:48.968Z,7.17
2019-03-24T19:10:52.740Z,7.45
2019-03-24T19:15:57.279Z,7.38
2019-03-24T19:21:12.622Z,7.14
2019-03-24T19:26:20.349Z,6.98
2019-03-24T19:31:25.397Z,7.12
2019-03-24T19:36:29.997Z,6.92
2019-03-24T19:41:33.791Z,7.23
2019-03-24T19:46:37.822Z,6.86
2019-03-24T19:51:52.082Z,6.63
2019-03-24T19:57:02.355Z,6.97
2019-03-24T20:02:10.179Z,7.19
2019-03-24T20:07:16.987Z,7.02
2019-03-24T20:12:24.404Z,6.94
2019-03-24T20:17:27.700Z,7.14
2019-03-24T20:22:42.481Z,6.78
2019-03-24T20:27:50.267Z,7.01
2019-03-24T20:32:54.715Z,6.87
2019-03-24T20:37:58.876Z,6.74
2019-03-24T20:43:03.043Z,6.87
2019-03-24T20:48:08.439Z,6.85
2019-03-24T20:53:18.497Z,6.87
2019-03-24T20:58:27.967Z,6.73
2019-03-24T21:03:31.699Z,6.79
2019-03-24T21:08:35.508Z,6.60
2019-03-24T21:13:39.855Z,6.33
2019-03-24T21:18:43.593Z,6.48
2019-03-24T21:23:47.329Z,6.56
2019-03-24T21:29:01.425Z,6.20
2019-03-24T21:34:06.578Z,6.33
2019-03-24T21:39:09.726Z,5.92
2019-03-24T21:44:13.853Z,6.09
2019-03-24T21:49:17.685Z,6.23
2019-03-24T21:54:20.898Z,6.08
2019-03-24T21:59:24.305Z,5.88
2019-03-24T22:04:28.154Z,5.95
2019-03-24T22:09:32.217Z,5.82
2019-03-24T22:14:36.025Z,5.76
2019-03-24T22:19:40.233Z,5.97
2019-03-24T22:24:44.390Z,5.57
2019-03-24T22:29:47.925Z,5.55
2019-03-24T22:34:51.743Z,5.45
2019-03-24T22:39:55.313Z,5.45
2019-03-24T22:44:59.095Z,5.40
2019-03-24T22:50:03.098Z,5.65
2019-03-24T22:55:08.293Z,5.41
2019-03-24T23:00:17.823Z,5.87
2019-03-24T23:05:21.287Z,5.78
2019-03-24T23:10:25.428Z,5.77
2019-03-24T23:15:28.539Z,5.52
2019-03-24T23:20:31.955Z,5.43
2019-03-24T23:25:35.434Z,5.71
2019-03-24T23:30:39.688Z,5.68
2019-03-24T23:35:43.809Z,5.82
2019-03-24T23:40:47.325Z,5.71
2019-03-24T23:45:51.580Z,5.50
2019-03-24T23:50:55.907Z,5.47
2019-03-24T23:56:00.146Z,5.25
